Time;durP1;ratioP1;P1;durP2;ratioP2;P2;SDS_P1;SDS_P2;PMS_P1;PMS_P2;Temp;Humidity;BMP_temperature;BMP_pressure;BME280_temperature;BME280_humidity;BME280_pressure;Samples;Min_cycle;Max_cycle;Signal;HPM_P1;HPM_P2
2023/07/24 00:00:10;;;;;;;22.65;13.27;;;;;;;25.20;46.09;99428.53;5012114;28;20037;-71
2023/07/24 00:02:36;;;;;;;21.35;12.45;;;;;;;24.72;47.23;99433.41;5011958;28;20022;-71
2023/07/24 00:05:01;;;;;;;22.52;12.80;;;;;;;24.58;46.74;99427.94;5012334;28;20059;-71
2023/07/24 00:07:27;;;;;;;19.88;11.88;;;;;;;25.22;45.79;99436.69;5011806;28;20026;-71
2023/07/24 00:09:52;;;;;;;18.10;11.98;;;;;;;25.34;45.03;99436.06;5012499;28;20037;-71
2023/07/24 00:12:18;;;;;;;22.33;12.63;;;;;;;25.16;46.49;99444.16;5012782;28;20531;-71
2023/07/24 00:14:43;;;;;;;20.35;11.40;;;;;;;25.19;46.11;99444.09;5012695;28;20030;-71
2023/07/24 00:17:09;;;;;;;19.00;11.90;;;;;;;24.99;46.60;99452.63;5012978;28;20026;-71
2023/07/24 00:19:34;;;;;;;18.50;12.70;;;;;;;24.52;48.08;99451.28;5010350;28;20068;-71
2023/07/24 00:21:59;;;;;;;18.92;11.88;;;;;;;23.93;50.94;99450.44;5010866;28;20069;-71
2023/07/24 00:24:25;;;;;;;17.45;10.43;;;;;;;23.69;52.86;99453.19;5011075;28;20496;-71
2023/07/24 00:26:50;;;;;;;14.57;10.82;;;;;;;23.60;54.67;99441.47;5011292;28;20497;-71
2023/07/24 00:29:16;;;;;;;18.95;10.07;;;;;;;23.61;56.87;99443.06;5010456;28;20467;-71
2023/07/24 00:31:41;;;;;;;14.43;9.65;;;;;;;23.91;56.71;99449.25;5011483;28;20029;-71
2023/07/24 00:34:07;;;;;;;14.35;9.40;;;;;;;23.91;56.13;99441.50;5009976;28;20041;-71
2023/07/24 00:36:32;;;;;;;14.20;9.75;;;;;;;23.73;57.66;99441.72;5011889;28;20038;-71
2023/07/24 00:38:58;;;;;;;14.73;9.13;;;;;;;23.78;57.62;99449.81;5011278;28;20029;-71
2023/07/24 00:41:23;;;;;;;16.20;9.90;;;;;;;23.88;57.21;99445.19;5011493;28;20022;-71
2023/07/24 00:43:48;;;;;;;14.55;9.80;;;;;;;24.17;56.53;99453.44;5011206;28;20092;-71
2023/07/24 00:46:14;;;;;;;22.70;10.45;;;;;;;24.29;55.98;99451.22;5012461;28;20026;-71
2023/07/24 00:48:40;;;;;;;17.08;9.25;;;;;;;24.44;55.81;99457.56;4995752;28;20471;-71
2023/07/24 00:51:06;;;;;;;14.90;9.20;;;;;;;24.55;54.87;99458.19;5010304;28;20033;-71
2023/07/24 00:53:32;;;;;;;16.75;8.82;;;;;;;24.58;54.82;99460.19;5010925;28;20527;-71
2023/07/24 00:55:57;;;;;;;15.73;9.40;;;;;;;24.48;55.69;99455.44;5011393;28;20057;-71
2023/07/24 00:58:23;;;;;;;22.85;9.93;;;;;;;24.20;56.99;99466.06;5010676;28;20496;-71
2023/07/24 01:00:50;;;;;;;17.33;10.73;;;;;;;24.51;55.82;99458.25;5012149;28;20029;-71
2023/07/24 01:03:15;;;;;;;18.58;10.55;;;;;;;24.65;54.96;99460.06;5011154;28;20417;-71
2023/07/24 01:05:41;;;;;;;23.63;12.35;;;;;;;24.75;54.22;99458.28;5011822;28;20034;-71
2023/07/24 01:08:07;;;;;;;21.45;13.38;;;;;;;24.89;53.96;99456.47;5009385;28;20032;-71
2023/07/24 01:10:32;;;;;;;18.65;12.88;;;;;;;24.11;56.68;99455.97;5011343;28;20034;-71
2023/07/24 01:13:05;;;;;;;18.80;10.75;;;;;;;23.23;59.56;99445.91;5011813;28;20113;-71
2023/07/24 01:15:41;;;;;;;16.83;9.10;;;;;;;23.12;60.41;99460.28;5010842;28;20026;-71
2023/07/24 01:18:09;;;;;;;17.35;9.55;;;;;;;23.48;58.53;99468.50;5011018;28;20034;-71
2023/07/24 01:20:39;;;;;;;13.55;10.05;;;;;;;22.64;60.49;99459.84;5008768;28;20076;-71
2023/07/24 01:23:20;;;;;;;;;;;;;;;22.25;62.33;99470.22;5012580;28;20503;-71
2023/07/24 01:25:51;;;;;;;;;;;;;;;22.86;60.35;99463.34;5012448;28;20055;-72
2023/07/24 01:28:16;;;;;;;16.83;11.68;;;;;;;22.51;59.61;99465.22;5011093;28;20008;-71
2023/07/24 01:30:42;;;;;;;16.98;11.02;;;;;;;22.23;60.15;99466.16;5011759;28;20497;-71
2023/07/24 01:33:07;;;;;;;19.30;11.50;;;;;;;22.85;58.44;99469.44;5009320;28;20115;-72
2023/07/24 01:35:33;;;;;;;21.52;11.43;;;;;;;22.49;60.62;99461.16;5026737;28;20081;-71
2023/07/24 01:38:00;;;;;;;16.90;10.95;;;;;;;22.49;61.54;99467.69;5011625;28;20112;-71
2023/07/24 01:40:25;;;;;;;29.67;10.82;;;;;;;22.92;60.28;99471.44;5011647;28;20032;-71
2023/07/24 01:42:51;;;;;;;13.70;9.85;;;;;;;22.72;60.92;99466.31;5011629;28;20022;-71
2023/07/24 01:45:17;;;;;;;15.10;9.27;;;;;;;23.10;59.77;99466.41;5010508;28;20412;-71
2023/07/24 01:47:42;;;;;;;12.15;9.30;;;;;;;23.25;59.33;99478.50;5010860;28;20045;-71
2023/07/24 01:50:08;;;;;;;11.52;8.90;;;;;;;23.61;58.31;99482.25;5008439;28;20504;-71
2023/07/24 01:52:34;;;;;;;14.23;8.30;;;;;;;23.66;58.47;99479.72;5010723;28;20022;-71
2023/07/24 01:54:59;;;;;;;13.23;9.00;;;;;;;23.81;58.11;99479.56;5009999;28;20029;-71
2023/07/24 01:57:24;;;;;;;9.52;7.53;;;;;;;23.77;58.14;99468.19;5010016;28;20025;-71
2023/07/24 01:59:50;;;;;;;10.95;7.32;;;;;;;23.64;58.69;99482.19;5008826;28;20104;-72
2023/07/24 02:02:15;;;;;;;13.18;7.57;;;;;;;23.63;58.64;99477.72;5010122;28;20385;-71
2023/07/24 02:04:41;;;;;;;15.73;9.38;;;;;;;22.92;60.81;99489.38;5008620;28;20393;-71
2023/07/24 02:07:06;;;;;;;13.70;8.50;;;;;;;22.71;61.94;99487.50;5010049;28;20022;-71
2023/07/24 02:09:32;;;;;;;12.60;8.38;;;;;;;22.71;61.78;99481.78;5009862;28;20026;-71
2023/07/24 02:11:57;;;;;;;10.70;7.80;;;;;;;22.93;61.00;99473.88;5011299;28;20022;-71
2023/07/24 02:14:24;;;;;;;11.43;8.23;;;;;;;22.37;62.56;99476.69;5009426;28;20026;-71
2023/07/24 02:16:49;;;;;;;17.75;8.57;;;;;;;21.46;65.79;99488.38;5010486;28;20094;-71
2023/07/24 02:19:15;;;;;;;14.48;8.63;;;;;;;20.87;67.72;99481.91;5008467;28;20022;-71
2023/07/24 02:21:40;;;;;;;14.13;8.88;;;;;;;20.76;68.18;99486.78;5008989;28;20484;-71
2023/07/24 02:24:06;;;;;;;14.70;8.32;;;;;;;20.62;68.09;99488.38;5010087;28;20056;-71
2023/07/24 02:26:31;;;;;;;13.40;9.18;;;;;;;20.30;70.07;99491.13;5010652;28;20033;-71
2023/07/24 02:28:57;;;;;;;11.35;8.25;;;;;;;20.29;69.46;99493.19;5010395;28;20397;-71
2023/07/24 02:31:22;;;;;;;15.25;9.10;;;;;;;20.06;70.94;99502.84;5012709;28;20030;-71
2023/07/24 02:33:48;;;;;;;15.68;8.65;;;;;;;20.24;70.20;99492.75;5012247;28;20041;-71
2023/07/24 02:36:14;;;;;;;10.82;8.25;;;;;;;20.81;67.95;99488.38;5015038;28;20037;-71
2023/07/24 02:38:40;;;;;;;13.88;8.07;;;;;;;21.00;67.15;99488.03;5013029;28;20057;-71
2023/07/24 02:41:05;;;;;;;16.25;8.88;;;;;;;21.23;66.68;99495.31;5010599;28;20500;-71
2023/07/24 02:43:31;;;;;;;17.77;8.27;;;;;;;21.59;65.18;99488.75;5009823;28;20026;-73
2023/07/24 02:46:01;;;;;;;14.10;8.38;;;;;;;21.75;64.54;99488.34;5013301;28;20029;-71
2023/07/24 02:48:27;;;;;;;15.40;7.88;;;;;;;21.94;63.90;99489.09;5013157;28;20033;-71
2023/07/24 02:50:52;;;;;;;13.70;8.68;;;;;;;22.21;62.83;99492.25;5011628;28;20033;-72
2023/07/24 02:53:17;;;;;;;12.20;7.65;;;;;;;22.11;62.66;99495.94;5014620;28;20032;-73
2023/07/24 02:55:43;;;;;;;11.35;7.80;;;;;;;21.66;64.57;99496.47;5012933;28;20042;-72
2023/07/24 02:58:09;;;;;;;15.35;8.05;;;;;;;21.84;64.11;99485.03;5013472;28;20215;-72
2023/07/24 03:00:34;;;;;;;15.65;8.00;;;;;;;21.88;64.04;99498.06;5014449;28;20116;-72
2023/07/24 03:03:00;;;;;;;17.20;7.60;;;;;;;21.95;63.29;99485.81;5007310;28;20029;-73
2023/07/24 03:05:25;;;;;;;16.20;8.18;;;;;;;22.10;63.28;99491.47;5011946;28;20053;-72
2023/07/24 03:07:50;;;;;;;13.07;8.15;;;;;;;22.37;61.97;99493.78;5028432;28;20100;-72
2023/07/24 03:10:16;;;;;;;12.90;7.43;;;;;;;22.39;61.41;99489.28;5013166;28;20041;-72
2023/07/24 03:12:41;;;;;;;14.25;7.35;;;;;;;22.14;62.59;99495.09;5011211;28;20026;-72
2023/07/24 03:15:07;;;;;;;25.52;8.13;;;;;;;21.90;62.99;99491.94;5011688;28;20033;-75
2023/07/24 03:17:33;;;;;;;18.67;8.20;;;;;;;21.98;63.18;99496.41;5013976;28;20034;-74
2023/07/24 03:19:59;;;;;;;21.52;8.40;;;;;;;21.97;63.67;99505.34;5013186;28;20489;-73
2023/07/24 03:22:25;;;;;;;14.95;9.15;;;;;;;21.85;64.27;99503.78;5011685;28;20056;-73
2023/07/24 03:24:50;;;;;;;20.98;9.73;;;;;;;20.51;68.32;99498.88;5013240;28;20034;-73
2023/07/24 03:27:15;;;;;;;18.58;8.63;;;;;;;20.70;67.28;99516.81;5013984;28;20026;-73
2023/07/24 03:29:41;;;;;;;18.35;9.23;;;;;;;20.35;68.54;99504.97;5013929;28;20034;-73
2023/07/24 03:32:07;;;;;;;13.63;9.07;;;;;;;19.92;70.05;99497.91;5012321;28;20034;-73
2023/07/24 03:34:32;;;;;;;16.88;9.48;;;;;;;19.55;71.61;99481.03;5012605;28;20133;-73
2023/07/24 03:36:58;;;;;;;20.17;10.48;;;;;;;19.70;71.21;99491.28;5012373;28;20033;-73
2023/07/24 03:39:23;;;;;;;19.45;8.95;;;;;;;19.39;72.54;99489.88;5011827;28;20481;-73
2023/07/24 03:41:49;;;;;;;15.00;10.07;;;;;;;19.58;71.98;99486.75;5012668;28;20531;-73
2023/07/24 03:44:14;;;;;;;17.42;9.13;;;;;;;19.59;71.56;99487.56;5010994;28;20095;-74
2023/07/24 03:46:40;;;;;;;27.23;10.95;;;;;;;19.76;70.87;99498.19;5012648;28;20026;-73
2023/07/24 03:49:05;;;;;;;135.23;17.25;;;;;;;19.83;70.48;99488.09;5012147;28;20461;-73
2023/07/24 03:51:31;;;;;;;37.38;12.18;;;;;;;19.92;69.50;99492.22;5008755;28;20053;-73
2023/07/24 03:53:56;;;;;;;31.35;12.35;;;;;;;19.87;69.48;99494.59;5009084;28;20041;-73
2023/07/24 03:56:21;;;;;;;20.63;11.23;;;;;;;19.85;69.18;99509.19;5012730;28;20033;-73
2023/07/24 03:58:47;;;;;;;36.75;12.52;;;;;;;20.04;68.25;99499.59;5011105;28;20030;-73
2023/07/24 04:01:12;;;;;;;20.52;10.88;;;;;;;19.74;68.99;99500.63;5007446;28;20037;-73
2023/07/24 04:03:38;;;;;;;16.52;10.38;;;;;;;19.57;69.99;99510.66;5007053;28;20084;-73
2023/07/24 04:06:03;;;;;;;19.83;10.35;;;;;;;19.43;70.74;99508.56;5003748;28;20030;-73
2023/07/24 04:08:29;;;;;;;20.35;11.13;;;;;;;19.46;70.33;99502.09;4993667;28;20026;-73
2023/07/24 04:10:56;;;;;;;19.48;10.23;;;;;;;19.61;70.31;99510.69;5008317;28;20026;-73
2023/07/24 04:13:22;;;;;;;21.38;11.10;;;;;;;19.82;69.71;99503.50;5013183;28;20113;-73
2023/07/24 04:15:47;;;;;;;12.88;9.45;;;;;;;19.95;69.93;99495.47;5011971;28;20172;-73
2023/07/24 04:18:12;;;;;;;17.95;9.95;;;;;;;20.17;69.25;99502.06;5008971;28;20029;-73
2023/07/24 04:20:38;;;;;;;18.55;10.95;;;;;;;19.81;70.41;99516.06;5010936;28;20485;-73
2023/07/24 04:23:03;;;;;;;20.92;10.45;;;;;;;19.74;71.62;99520.47;5003879;28;20018;-73
2023/07/24 04:25:29;;;;;;;22.80;10.38;;;;;;;19.82;72.24;99523.38;5008091;28;20021;-73
2023/07/24 04:27:54;;;;;;;15.85;10.63;;;;;;;20.18;71.81;99512.22;5004102;28;20062;-73
2023/07/24 04:30:20;;;;;;;17.95;10.35;;;;;;;20.38;71.11;99506.16;5010098;28;20064;-73
2023/07/24 04:32:46;;;;;;;13.65;9.73;;;;;;;20.50;70.52;99513.50;5009786;28;20415;-73
2023/07/24 04:35:11;;;;;;;17.67;10.18;;;;;;;20.56;70.17;99512.72;5009586;28;20058;-71
2023/07/24 04:37:37;;;;;;;21.30;9.73;;;;;;;20.57;69.71;99528.53;5003546;28;20030;-72
2023/07/24 04:40:03;;;;;;;33.67;11.23;;;;;;;20.90;68.88;99526.59;5013242;28;20064;-72
2023/07/24 04:42:28;;;;;;;21.42;10.23;;;;;;;21.13;68.16;99522.56;4999898;28;20049;-72
2023/07/24 04:44:54;;;;;;;13.40;9.20;;;;;;;20.99;69.41;99517.69;4999518;28;20022;-71
2023/07/24 04:47:19;;;;;;;15.40;9.77;;;;;;;21.25;68.78;99514.84;5007029;28;20087;-72
2023/07/24 04:49:45;;;;;;;17.23;10.00;;;;;;;21.41;69.04;99520.91;5008160;28;20034;-71
2023/07/24 04:52:10;;;;;;;14.45;9.43;;;;;;;21.57;70.14;99516.81;5002641;28;20062;-71
2023/07/24 04:54:36;;;;;;;14.60;10.18;;;;;;;22.06;69.75;99519.97;4992473;28;20037;-72
2023/07/24 04:57:01;;;;;;;14.82;10.23;;;;;;;22.43;69.37;99515.72;4998253;28;20028;-72
2023/07/24 04:59:26;;;;;;;14.55;10.73;;;;;;;22.75;67.43;99524.53;5010146;28;20029;-72
2023/07/24 05:01:52;;;;;;;18.67;10.88;;;;;;;22.90;66.70;99526.03;5012209;28;20528;-72
2023/07/24 05:04:17;;;;;;;22.30;10.68;;;;;;;23.02;67.07;99521.06;5006069;28;20405;-72
2023/07/24 05:06:43;;;;;;;21.58;12.68;;;;;;;23.02;69.79;99530.41;5007373;28;20030;-72
2023/07/24 05:09:08;;;;;;;18.02;11.48;;;;;;;23.17;69.80;99528.28;5012106;28;20022;-72
2023/07/24 05:11:34;;;;;;;17.40;12.05;;;;;;;23.46;68.43;99533.75;5012015;28;20026;-72
2023/07/24 05:13:59;;;;;;;21.02;13.95;;;;;;;23.54;70.25;99523.09;5011991;28;20025;-72
2023/07/24 05:16:25;;;;;;;17.60;12.75;;;;;;;23.59;69.83;99521.78;5010671;28;20397;-72
2023/07/24 05:18:50;;;;;;;27.27;12.93;;;;;;;23.61;70.19;99525.84;5011975;28;20425;-72
2023/07/24 05:21:15;;;;;;;31.05;15.85;;;;;;;23.69;71.42;99524.56;5010663;28;20496;-72
2023/07/24 05:23:41;;;;;;;32.72;16.95;;;;;;;23.55;72.49;99514.09;5011963;28;20029;-72
2023/07/24 05:26:06;;;;;;;23.25;13.45;;;;;;;23.69;72.99;99520.88;5011681;28;20022;-72
2023/07/24 05:28:32;;;;;;;24.17;14.00;;;;;;;23.77;72.46;99524.47;5011800;28;20045;-72
2023/07/24 05:31:02;;;;;;;21.55;14.15;;;;;;;23.83;71.33;99531.34;5011806;28;20099;-72
2023/07/24 05:33:28;;;;;;;29.70;16.08;;;;;;;23.81;71.25;99528.09;5011536;28;20449;-72
2023/07/24 05:36:01;;;;;;;23.52;14.32;;;;;;;24.11;71.11;99535.13;5010132;28;20033;-72
2023/07/24 05:38:27;;;;;;;28.63;16.02;;;;;;;24.29;70.94;99536.97;5010489;28;20034;-72
2023/07/24 05:41:00;;;;;;;22.27;15.25;;;;;;;24.42;69.11;99538.00;5011679;28;20097;-72
2023/07/24 05:43:27;;;;;;;30.27;16.70;;;;;;;24.66;66.86;99532.38;5011540;28;20022;-72
2023/07/24 05:45:54;;;;;;;24.55;14.27;;;;;;;24.52;67.16;99524.78;5008729;28;20022;-72
2023/07/24 05:48:20;;;;;;;24.50;14.45;;;;;;;24.90;65.78;99526.72;5011427;28;20022;-72
2023/07/24 05:50:45;;;;;;;24.63;14.30;;;;;;;25.13;63.59;99523.06;5011535;28;20032;-72
2023/07/24 05:53:11;;;;;;;30.15;15.75;;;;;;;25.09;65.13;99516.63;5010114;28;20029;-72
2023/07/24 05:55:36;;;;;;;25.23;15.80;;;;;;;24.91;65.23;99526.28;5011510;28;20028;-72
2023/07/24 05:58:02;;;;;;;23.90;15.50;;;;;;;23.95;69.85;99527.13;5009728;28;20511;-72
2023/07/24 06:00:27;;;;;;;27.10;16.80;;;;;;;23.70;69.54;99520.47;5011353;28;20412;-72
2023/07/24 06:02:54;;;;;;;36.10;16.38;;;;;;;23.84;68.93;99516.66;5009097;28;20408;-72
2023/07/24 06:05:22;;;;;;;23.52;15.50;;;;;;;24.60;66.38;99525.50;5009697;28;20120;-72
2023/07/24 06:07:48;;;;;;;27.45;16.08;;;;;;;24.88;64.77;99529.22;5010973;28;20026;-69
2023/07/24 06:10:13;;;;;;;66.20;16.55;;;;;;;24.66;65.69;99527.44;5010021;28;20022;-70
2023/07/24 06:12:39;;;;;;;24.17;15.55;;;;;;;24.96;66.65;99524.97;5009668;28;20026;-69
2023/07/24 06:15:05;;;;;;;25.20;16.38;;;;;;;25.05;64.74;99525.25;5011305;28;20022;-69
2023/07/24 06:17:31;;;;;;;22.45;15.23;;;;;;;25.49;64.15;99515.97;5010120;28;20487;-71
2023/07/24 06:19:56;;;;;;;26.38;17.25;;;;;;;25.18;65.20;99507.47;5009859;28;20117;-71
2023/07/24 06:22:22;;;;;;;32.03;17.05;;;;;;;25.00;65.96;99507.78;5008823;28;20071;-71
2023/07/24 06:24:48;;;;;;;64.55;19.33;;;;;;;25.12;65.76;99507.16;5009867;28;20033;-71
2023/07/24 06:27:14;;;;;;;32.13;17.25;;;;;;;25.44;65.21;99496.38;5004864;28;20556;-70
2023/07/24 06:29:39;;;;;;;26.35;17.25;;;;;;;25.65;64.22;99493.16;5025144;28;20472;-70
2023/07/24 06:32:05;;;;;;;27.17;17.00;;;;;;;25.63;63.22;99504.25;5023385;28;20029;-71
2023/07/24 06:34:30;;;;;;;25.58;16.65;;;;;;;25.90;62.98;99497.56;5006278;28;20412;-70
2023/07/24 06:36:56;;;;;;;25.00;15.98;;;;;;;25.44;62.74;99493.53;5005075;28;20509;-70
2023/07/24 06:39:21;;;;;;;23.90;15.80;;;;;;;25.62;61.88;99488.31;5010674;28;20410;-70
2023/07/24 06:41:47;;;;;;;26.48;15.27;;;;;;;25.67;59.68;99487.00;5003417;28;20030;-71
2023/07/24 06:44:12;;;;;;;21.38;14.45;;;;;;;25.57;59.98;99502.31;5007661;28;20456;-73
2023/07/24 06:46:38;;;;;;;20.80;15.27;;;;;;;25.53;60.01;99496.66;5000441;28;20960;-71
2023/07/24 06:49:03;;;;;;;28.65;15.85;;;;;;;25.78;58.52;99492.50;5008951;28;20048;-70
2023/07/24 06:51:29;;;;;;;28.35;15.73;;;;;;;25.68;60.04;99491.47;5010350;28;20025;-70
2023/07/24 06:53:54;;;;;;;30.73;16.88;;;;;;;25.65;59.87;99495.22;5005257;28;20087;-71
2023/07/24 06:56:20;;;;;;;24.27;15.70;;;;;;;25.90;58.10;99483.25;5009623;28;20111;-70
2023/07/24 06:58:45;;;;;;;28.98;15.80;;;;;;;26.33;57.65;99477.88;5007424;28;20034;-72
2023/07/24 07:01:11;;;;;;;27.33;15.63;;;;;;;26.04;57.54;99484.19;5008886;28;20022;-74
2023/07/24 07:03:36;;;;;;;23.17;15.52;;;;;;;25.44;59.74;99496.38;5008375;28;20022;-74
2023/07/24 07:06:02;;;;;;;28.23;16.48;;;;;;;25.38;60.58;99494.03;5009723;28;20030;-75
2023/07/24 07:08:30;;;;;;;28.92;17.02;;;;;;;25.95;59.59;99486.88;5006460;28;20022;-71
2023/07/24 07:11:00;;;;;;;27.60;16.45;;;;;;;26.31;58.02;99480.41;5008289;28;20100;-73
2023/07/24 07:13:25;;;;;;;43.33;16.63;;;;;;;26.84;57.82;99485.31;5019000;28;20079;-72
2023/07/24 07:15:51;;;;;;;26.58;15.27;;;;;;;27.05;57.34;99470.47;5000267;28;20029;-72
2023/07/24 07:18:16;;;;;;;24.52;14.85;;;;;;;27.30;56.39;99482.53;5001315;28;20488;-73
2023/07/24 07:20:49;;;;;;;25.67;15.95;;;;;;;26.67;56.17;99465.22;5008534;28;20029;-71
2023/07/24 07:23:15;;;;;;;22.27;14.77;;;;;;;27.12;54.95;99468.66;5004016;28;20092;-72
2023/07/24 07:25:43;;;;;;;29.33;15.88;;;;;;;27.22;54.71;99473.31;5010408;28;20481;-73
2023/07/24 07:28:09;;;;;;;25.58;16.05;;;;;;;26.97;55.06;99466.16;5005746;28;20028;-75
2023/07/24 07:30:34;;;;;;;22.27;14.60;;;;;;;26.98;55.06;99467.78;5003697;28;20025;-74
2023/07/24 07:33:00;;;;;;;24.00;15.65;;;;;;;27.52;54.53;99464.75;5005080;28;20034;-75
2023/07/24 07:35:25;;;;;;;23.60;13.65;;;;;;;27.89;52.90;99457.56;5007140;28;20042;-74
2023/07/24 07:37:51;;;;;;;23.15;15.43;;;;;;;27.81;51.67;99453.28;5005543;28;20030;-74
2023/07/24 07:40:16;;;;;;;23.65;15.02;;;;;;;27.84;50.34;99458.09;5008900;28;20085;-75
2023/07/24 07:42:42;;;;;;;23.50;14.85;;;;;;;28.17;51.52;99455.13;5011438;28;20021;-74
2023/07/24 07:45:08;;;;;;;20.85;14.75;;;;;;;28.30;50.76;99458.00;5008204;28;20025;-73
2023/07/24 07:47:33;;;;;;;23.92;14.80;;;;;;;28.54;48.23;99448.25;5002544;28;20026;-71
2023/07/24 07:49:58;;;;;;;24.88;14.60;;;;;;;28.36;46.83;99443.88;4991432;28;20030;-74
2023/07/24 07:52:24;;;;;;;22.05;14.52;;;;;;;28.22;47.35;99442.25;4994694;28;20029;-72
2023/07/24 07:54:49;;;;;;;29.83;15.32;;;;;;;28.54;46.66;99442.50;4992934;28;20029;-71
2023/07/24 07:57:15;;;;;;;23.00;15.30;;;;;;;28.63;46.96;99451.22;5006492;28;20034;-73
2023/07/24 07:59:41;;;;;;;22.48;16.52;;;;;;;28.98;46.55;99444.78;5007780;28;20030;-69
2023/07/24 08:02:07;;;;;;;21.75;15.57;;;;;;;29.32;46.23;99442.38;5011536;28;20053;-71
2023/07/24 08:04:32;;;;;;;21.95;15.15;;;;;;;29.66;44.98;99452.28;5008901;28;20097;-73
2023/07/24 08:06:58;;;;;;;27.25;14.68;;;;;;;29.95;43.51;99442.59;5011069;28;20120;-74
2023/07/24 08:09:24;;;;;;;21.92;14.07;;;;;;;29.76;42.77;99442.44;5010912;28;20029;-73
2023/07/24 08:11:50;;;;;;;24.45;15.18;;;;;;;29.67;43.13;99448.97;5008875;28;20108;-73
2023/07/24 08:14:16;;;;;;;23.25;14.98;;;;;;;29.80;42.22;99434.47;5010054;28;20045;-74
2023/07/24 08:16:41;;;;;;;21.33;14.43;;;;;;;29.96;43.15;99435.53;5007151;28;20021;-77
2023/07/24 08:19:06;;;;;;;21.88;14.55;;;;;;;30.19;42.34;99434.25;5009180;28;20022;-74
2023/07/24 08:21:32;;;;;;;26.60;14.05;;;;;;;30.18;42.57;99420.34;4998471;28;20030;-75
2023/07/24 08:23:58;;;;;;;18.90;13.85;;;;;;;29.97;42.82;99440.81;4999163;28;20060;-74
2023/07/24 08:26:25;;;;;;;26.02;14.75;;;;;;;30.16;43.51;99428.63;5004092;28;20068;-76
2023/07/24 08:28:51;;;;;;;32.05;18.17;;;;;;;30.60;41.16;99436.38;5021999;28;20025;-75
2023/07/24 08:31:17;;;;;;;25.75;16.98;;;;;;;30.54;41.04;99430.44;5006699;28;20519;-75
2023/07/24 08:33:42;;;;;;;22.75;16.42;;;;;;;30.85;39.83;99426.69;5006870;28;20050;-75
2023/07/24 08:36:08;;;;;;;24.40;15.68;;;;;;;30.95;40.62;99430.38;5007344;28;20034;-74
2023/07/24 08:38:37;;;;;;;24.17;16.77;;;;;;;31.18;40.20;99425.31;5005866;28;20133;-76
2023/07/24 08:41:08;;;;;;;20.23;14.30;;;;;;;31.02;38.97;99429.31;5009657;28;20040;-76
2023/07/24 08:43:35;;;;;;;22.95;13.18;;;;;;;30.92;38.80;99426.41;5010264;28;20037;-76
2023/07/24 08:46:02;;;;;;;18.90;13.15;;;;;;;30.98;38.89;99419.97;5009857;28;20026;-76
2023/07/24 08:48:35;;;;;;;17.63;11.65;;;;;;;31.05;38.49;99408.91;5010634;28;20062;-76
2023/07/24 08:51:03;;;;;;;18.45;12.82;;;;;;;31.36;37.35;99419.56;5006740;28;20566;-77
2023/07/24 08:53:36;;;;;;;23.73;14.32;;;;;;;31.42;37.17;99418.94;5006963;28;20037;-77
2023/07/24 08:56:08;;;;;;;23.15;13.75;;;;;;;31.22;36.77;99406.56;5024908;28;20034;-78
2023/07/24 08:58:35;;;;;;;27.38;13.70;;;;;;;31.55;36.81;99413.00;5009906;28;20509;-76
2023/07/24 09:01:02;;;;;;;24.80;14.18;;;;;;;31.78;36.37;99400.75;5009520;28;20493;-74
2023/07/24 09:03:28;;;;;;;18.88;12.95;;;;;;;31.84;36.29;99411.69;5010676;28;20108;-75
2023/07/24 09:05:54;;;;;;;18.58;12.02;;;;;;;31.49;35.34;99399.19;4997836;28;20498;-75
2023/07/24 09:08:37;;;;;;;21.98;12.60;;;;;;;31.26;35.33;99397.75;5006433;28;20037;-74
2023/07/24 09:11:04;;;;;;;19.30;12.93;;;;;;;30.82;35.89;99393.00;5000340;28;20029;-75
2023/07/24 09:13:31;;;;;;;39.65;21.67;;;;;;;31.41;36.08;99397.91;5001534;28;20041;-75
2023/07/24 09:15:57;;;;;;;19.20;12.80;;;;;;;31.50;36.66;99388.44;4992610;28;20046;-74
2023/07/24 09:18:22;;;;;;;20.05;13.15;;;;;;;31.77;35.74;99378.94;5005177;28;20029;-74
2023/07/24 09:20:49;;;;;;;24.90;12.45;;;;;;;31.91;36.00;99383.25;5006779;28;20100;-76
2023/07/24 09:23:15;;;;;;;19.13;12.75;;;;;;;32.18;35.21;99395.22;5003846;28;20028;-76
2023/07/24 09:25:43;;;;;;;20.27;13.50;;;;;;;31.40;35.33;99378.97;5004072;28;20038;-77
2023/07/24 09:28:10;;;;;;;21.73;12.77;;;;;;;32.10;35.99;99377.41;5003779;28;20416;-76
2023/07/24 09:30:36;;;;;;;20.63;12.68;;;;;;;32.26;34.21;99373.34;4994360;28;20022;-76
2023/07/24 09:33:01;;;;;;;20.70;12.63;;;;;;;32.45;35.03;99370.38;5002146;28;20061;-76
2023/07/24 09:35:28;;;;;;;17.83;12.27;;;;;;;32.57;33.29;99374.34;5026463;28;20050;-76
2023/07/24 09:38:05;;;;;;;22.17;12.27;;;;;;;32.76;33.74;99366.34;5003863;28;20033;-76
2023/07/24 09:40:41;;;;;;;18.02;12.57;;;;;;;32.73;32.51;99364.44;5006003;28;20030;-77
2023/07/24 09:43:21;;;;;;;16.33;12.88;;;;;;;32.98;33.79;99354.47;5005470;28;20021;-75
2023/07/24 09:45:47;;;;;;;;;;;;;;;33.26;32.75;99347.66;4992579;28;20030;-76
2023/07/24 09:48:14;;;;;;;18.52;11.82;;;;;;;33.29;32.75;99355.34;5004513;28;20388;-76
2023/07/24 09:50:42;;;;;;;18.40;11.52;;;;;;;33.17;32.26;99349.31;4995907;28;20041;-77
2023/07/24 09:53:24;;;;;;;17.70;11.13;;;;;;;33.32;31.99;99348.59;5004674;28;20030;-78
2023/07/24 09:56:00;;;;;;;15.23;10.90;;;;;;;33.44;32.45;99338.00;5006980;28;20048;-78
2023/07/24 09:58:26;;;;;;;14.65;11.38;;;;;;;33.71;30.97;99339.84;5008085;28;20028;-78
2023/07/24 10:00:53;;;;;;;19.15;11.73;;;;;;;33.91;30.47;99332.53;5006614;28;20033;-77
2023/07/24 10:03:20;;;;;;;19.35;10.85;;;;;;;33.75;31.24;99328.84;5004615;28;20025;-77
2023/07/24 10:05:47;;;;;;;14.00;11.10;;;;;;;33.84;30.67;99321.34;5007586;28;20049;-77
2023/07/24 10:08:14;;;;;;;17.10;11.45;;;;;;;33.92;30.56;99322.53;5008390;28;20029;-78
2023/07/24 10:10:40;;;;;;;16.58;12.15;;;;;;;33.79;31.48;99328.63;5005609;28;20029;-79
2023/07/24 10:13:07;;;;;;;18.00;10.95;;;;;;;33.85;30.57;99317.94;5007545;28;20026;-78
2023/07/24 10:15:33;;;;;;;17.00;11.88;;;;;;;33.71;30.30;99316.66;5011944;28;20037;-77
2023/07/24 10:18:07;;;;;;;18.02;12.07;;;;;;;33.83;31.21;99311.03;5011118;28;20057;-77
2023/07/24 10:20:39;;;;;;;19.10;11.50;;;;;;;33.92;30.13;99305.16;5010113;28;20627;-77
2023/07/24 10:23:07;;;;;;;16.75;11.23;;;;;;;33.96;30.46;99294.13;5015161;28;20112;-77
2023/07/24 10:25:34;;;;;;;16.95;12.40;;;;;;;34.22;30.72;99293.50;5011163;28;20049;-77
2023/07/24 10:28:06;;;;;;;15.18;11.55;;;;;;;34.40;30.44;99291.66;5026863;28;20029;-77
2023/07/24 10:30:32;;;;;;;22.85;12.05;;;;;;;34.73;30.88;99278.91;5002963;28;20493;-77
2023/07/24 10:33:05;;;;;;;17.02;11.73;;;;;;;34.40;30.32;99283.72;5002262;28;20116;-77
2023/07/24 10:35:42;;;;;;;18.33;12.20;;;;;;;34.72;29.85;99272.31;5016454;28;20092;-77
2023/07/24 10:38:08;;;;;;;18.63;11.32;;;;;;;34.36;31.43;99273.63;5008667;28;20061;-76
2023/07/24 10:40:34;;;;;;;14.70;11.48;;;;;;;34.77;30.34;99261.25;5011513;28;20514;-76
2023/07/24 10:43:12;;;;;;;18.50;11.38;;;;;;;34.82;29.01;99257.66;5010827;28;20084;-77
2023/07/24 10:45:58;;;;;;;22.17;12.50;;;;;;;34.74;30.12;99254.34;5012200;28;20026;-77
2023/07/24 10:48:25;;;;;;;18.80;12.98;;;;;;;34.75;29.68;99246.47;5007247;28;20056;-77
2023/07/24 10:50:52;;;;;;;18.45;12.13;;;;;;;34.96;29.42;99245.13;5012152;28;20049;-76
2023/07/24 10:53:21;;;;;;;19.85;11.05;;;;;;;34.93;28.46;99249.03;5014014;28;20052;-76
2023/07/24 10:55:47;;;;;;;17.00;11.02;;;;;;;34.89;28.52;99231.03;5014001;28;20105;-76
2023/07/24 10:58:13;;;;;;;15.65;12.35;;;;;;;34.81;28.72;99241.50;5015298;28;20034;-77
2023/07/24 11:00:47;;;;;;;20.67;11.77;;;;;;;34.93;27.77;99233.72;5012681;28;20041;-77
2023/07/24 11:03:14;;;;;;;18.02;10.82;;;;;;;35.28;28.15;99229.88;5015115;28;20017;-77
2023/07/24 11:05:40;;;;;;;23.33;12.32;;;;;;;35.54;26.85;99217.47;5016123;28;20052;-77
2023/07/24 11:08:16;;;;;;;19.40;11.50;;;;;;;35.32;27.33;99221.72;5003388;28;20496;-77
2023/07/24 11:10:57;;;;;;;18.50;11.45;;;;;;;35.66;25.98;99216.22;5025580;28;20093;-77
2023/07/24 11:13:25;;;;;;;15.15;11.45;;;;;;;35.60;25.87;99214.59;5010452;28;20021;-77
2023/07/24 11:15:51;;;;;;;16.92;11.32;;;;;;;35.72;26.84;99210.47;5029980;28;20026;-77